N210JR KGJT-KGUC
Flight info
| Callsign | N210JR |
|---|---|
| Flight time | N/A |
| Altitude | 11000 |
| Route | BATTZ MEYRS |
| Aircraft | C210/L-BDFGLORY/S |
Departure
| Time | 2026-04-15 02:08 |
|---|---|
| Airport | Grand Junction Regional Airport (KGJT) |
Arrival
| Time | N/A |
|---|---|
| Airport | Gunnison Crested Butte Regional Airport (KGUC) |
| Time | Latitude | Longitude | Altitude | Speed | Heading |
|---|---|---|---|---|---|
| 2026-04-15 01:57 | 39.11696 | -108.52034 | 4843 ft | 0 kts | 48° |
| 2026-04-15 01:58 | 39.11690 | -108.52026 | 4843 ft | 7 kts | 174° |
| 2026-04-15 01:59 | 39.11639 | -108.52031 | 4840 ft | 10 kts | 154° |
| 2026-04-15 01:59 | 39.11654 | -108.51971 | 4843 ft | 4 kts | 54° |
| 2026-04-15 01:59 | 39.11666 | -108.51947 | 4848 ft | 0 kts | 78° |
| 2026-04-15 01:59 | 39.11671 | -108.51923 | 4845 ft | 10 kts | 71° |
| 2026-04-15 02:00 | 39.11682 | -108.51894 | 4847 ft | 0 kts | 58° |
| 2026-04-15 02:00 | 39.11683 | -108.51893 | 4847 ft | 2 kts | 57° |
| 2026-04-15 02:00 | 39.11716 | -108.51829 | 4850 ft | 9 kts | 53° |
| 2026-04-15 02:00 | 39.11760 | -108.51758 | 4855 ft | 9 kts | 50° |
| 2026-04-15 02:01 | 39.11790 | -108.51718 | 4858 ft | 2 kts | 48° |
| 2026-04-15 02:01 | 39.11796 | -108.51709 | 4859 ft | 4 kts | 52° |
| 2026-04-15 02:01 | 39.11814 | -108.51660 | 4862 ft | 3 kts | 61° |
| 2026-04-15 02:01 | 39.11815 | -108.51659 | 4862 ft | 0 kts | 43° |
| 2026-04-15 02:02 | 39.11818 | -108.51655 | 4863 ft | 7 kts | 56° |
| 2026-04-15 02:02 | 39.11821 | -108.51624 | 4864 ft | 5 kts | 115° |
| 2026-04-15 02:02 | 39.11808 | -108.51595 | 4864 ft | 15 kts | 118° |
| 2026-04-15 02:02 | 39.11775 | -108.51583 | 4863 ft | 0 kts | 220° |
| 2026-04-15 02:03 | 39.11769 | -108.51587 | 4863 ft | 0 kts | 201° |
| 2026-04-15 02:03 | 39.11768 | -108.51588 | 4863 ft | 4 kts | 204° |
| 2026-04-15 02:03 | 39.11749 | -108.51620 | 4860 ft | 6 kts | 237° |
| 2026-04-15 02:03 | 39.11743 | -108.51627 | 4860 ft | 0 kts | 228° |
| 2026-04-15 02:04 | 39.11720 | -108.51665 | 4856 ft | 10 kts | 219° |
| 2026-04-15 02:05 | 39.11698 | -108.51730 | 4852 ft | 3 kts | 221° |
| 2026-04-15 02:05 | 39.11691 | -108.51737 | 4851 ft | 11 kts | 198° |
| 2026-04-15 02:05 | 39.11617 | -108.51819 | 4847 ft | 18 kts | 231° |
| 2026-04-15 02:05 | 39.11535 | -108.51968 | 4837 ft | 27 kts | 237° |
| 2026-04-15 02:06 | 39.11370 | -108.52312 | 4830 ft | 65 kts | 232° |
| 2026-04-15 02:06 | 39.11014 | -108.52899 | 4794 ft | 99 kts | 236° |
| 2026-04-15 02:06 | 39.10603 | -108.53650 | 4871 ft | 109 kts | 240° |
| 2026-04-15 02:06 | 39.10152 | -108.54545 | 4896 ft | 130 kts | 242° |
| 2026-04-15 02:07 | 39.09665 | -108.55517 | 5158 ft | 128 kts | 242° |
| 2026-04-15 02:07 | 39.09171 | -108.56464 | 5411 ft | 127 kts | 242° |
| 2026-04-15 02:07 | 39.08361 | -108.56993 | 5388 ft | 145 kts | 178° |
| 2026-04-15 02:07 | 39.07435 | -108.56409 | 5395 ft | 158 kts | 132° |
| 2026-04-15 02:08 | 39.06782 | -108.55240 | 5442 ft | 165 kts | 124° |
| 2026-04-15 02:08 | 39.06100 | -108.54050 | 5607 ft | 165 kts | 127° |
| 2026-04-15 02:08 | 39.05384 | -108.52889 | 5754 ft | 167 kts | 127° |
| 2026-04-15 02:08 | 39.04656 | -108.51725 | 5889 ft | 167 kts | 128° |
| 2026-04-15 02:09 | 39.03936 | -108.50572 | 6014 ft | 167 kts | 126° |
| 2026-04-15 02:09 | 39.03210 | -108.49410 | 6141 ft | 166 kts | 126° |
| 2026-04-15 02:09 | 39.02533 | -108.48326 | 6262 ft | 166 kts | 127° |
| 2026-04-15 02:09 | 39.01802 | -108.47158 | 6394 ft | 168 kts | 127° |
| 2026-04-15 02:10 | 39.01069 | -108.45984 | 6526 ft | 169 kts | 127° |
| 2026-04-15 02:10 | 39.00328 | -108.44799 | 6656 ft | 171 kts | 127° |
| 2026-04-15 02:10 | 38.99580 | -108.43605 | 6785 ft | 173 kts | 128° |
| 2026-04-15 02:10 | 38.98820 | -108.42391 | 6909 ft | 175 kts | 127° |
| 2026-04-15 02:11 | 38.98052 | -108.41164 | 7031 ft | 176 kts | 128° |
| 2026-04-15 02:11 | 38.97281 | -108.39933 | 7150 ft | 178 kts | 128° |
| 2026-04-15 02:11 | 38.96502 | -108.38690 | 7270 ft | 179 kts | 128° |
| 2026-04-15 02:11 | 38.95720 | -108.37444 | 7394 ft | 180 kts | 128° |
| 2026-04-15 02:12 | 38.94939 | -108.36198 | 7512 ft | 179 kts | 128° |
| 2026-04-15 02:12 | 38.94155 | -108.34948 | 7636 ft | 180 kts | 128° |
| 2026-04-15 02:12 | 38.93383 | -108.33718 | 7753 ft | 175 kts | 128° |
| 2026-04-15 02:12 | 38.92624 | -108.32510 | 7870 ft | 173 kts | 128° |
| 2026-04-15 02:13 | 38.91873 | -108.31314 | 7994 ft | 171 kts | 129° |
| 2026-04-15 02:13 | 38.91130 | -108.30132 | 8114 ft | 169 kts | 129° |
| 2026-04-15 02:13 | 38.90392 | -108.28956 | 8243 ft | 169 kts | 129° |
| 2026-04-15 02:13 | 38.89652 | -108.27780 | 8373 ft | 170 kts | 129° |
| 2026-04-15 02:14 | 38.88911 | -108.26602 | 8495 ft | 168 kts | 129° |
| 2026-04-15 02:14 | 38.88174 | -108.25432 | 8626 ft | 169 kts | 129° |
| 2026-04-15 02:14 | 38.87433 | -108.24255 | 8754 ft | 170 kts | 129° |
| 2026-04-15 02:14 | 38.86754 | -108.23025 | 8883 ft | 169 kts | 122° |
| 2026-04-15 02:15 | 38.86122 | -108.21747 | 9025 ft | 169 kts | 123° |
| 2026-04-15 02:15 | 38.85472 | -108.20457 | 9033 ft | 178 kts | 123° |
| 2026-04-15 02:15 | 38.84783 | -108.19082 | 9048 ft | 183 kts | 123° |
| 2026-04-15 02:15 | 38.84091 | -108.17699 | 9068 ft | 186 kts | 123° |
| 2026-04-15 02:16 | 38.83399 | -108.16315 | 9078 ft | 186 kts | 124° |
| 2026-04-15 02:16 | 38.82697 | -108.14913 | 9086 ft | 187 kts | 124° |
| 2026-04-15 02:16 | 38.81994 | -108.13507 | 9088 ft | 188 kts | 124° |
| 2026-04-15 02:16 | 38.81291 | -108.12104 | 9089 ft | 187 kts | 124° |
| 2026-04-15 02:17 | 38.80603 | -108.10730 | 9271 ft | 178 kts | 124° |
| 2026-04-15 02:17 | 38.79945 | -108.09418 | 9463 ft | 172 kts | 124° |
| 2026-04-15 02:17 | 38.79306 | -108.08143 | 9656 ft | 167 kts | 124° |
| 2026-04-15 02:17 | 38.78683 | -108.06902 | 9850 ft | 164 kts | 124° |
| 2026-04-15 02:18 | 38.78070 | -108.05680 | 10036 ft | 162 kts | 125° |
| 2026-04-15 02:18 | 38.77464 | -108.04474 | 10223 ft | 159 kts | 124° |
| 2026-04-15 02:18 | 38.76875 | -108.03301 | 10395 ft | 157 kts | 124° |
| 2026-04-15 02:18 | 38.76283 | -108.02123 | 10575 ft | 156 kts | 124° |
| 2026-04-15 02:19 | 38.75698 | -108.00961 | 10759 ft | 154 kts | 124° |
| 2026-04-15 02:19 | 38.75118 | -107.99808 | 10946 ft | 153 kts | 124° |
| 2026-04-15 02:19 | 38.74540 | -107.98657 | 11067 ft | 157 kts | 124° |